Harpers Ferry, WV (25425)

12:37 PM EST on February 08, 2016 (GMT -0500)
Tasty Acres Farm | | Change Station
CLOSE
Current Station
Personal Weather Station
Location: Harpers Ferry, WV
Elevation: 435 ft
Nearby Weather Stations
Active Advisory: Winter Weather Advisory

Elev 435 ft 39.36 °N, 77.77 °W | Updated 2 minutes ago

Clear
Clear
41.9 °F
Feels Like 42 °F
N
2.0
Wind Variable Wind from SE
Gusts 4.0 mph

Today
High -- | Low -- °F
--% Chance of Precip.
Yesterday
High -- | Low -- °F
Precip. -- in
Pressure 29.76 in
Visibility 10.0 miles
Clouds Clear
Windchill 42 °F
Dew Point 27 °F
Humidity 56%
Rainfall 0.00 in
Snow Depth Not available.
7:11 AM 5:39 PM
New Moon, 0% visible
METAR KMRB 081653Z 17003KT 10SM CLR 05/M06 A2974 RMK AO2 SLP076 T00501056
Pressure 29.76 in
Visibility 10.0 miles
Clouds Clear
Windchill 42 °F
Dew Point 27 °F
Humidity 56%
Rainfall 0.00 in
Snow Depth Not available.
7:11 AM 5:39 PM
New Moon, 0% visible
METAR KMRB 081653Z 17003KT 10SM CLR 05/M06 A2974 RMK AO2 SLP076 T00501056

10-Day Weather Forecast

Almanac

Astronomy

Feb. 08, 2016 Rise Set
Actual Time
Civil Twilight
Nautical Twilight
Astronomical Twilight
Moon
Length of Visible Light
Length of Day
Tomorrow will be .
, % of the Moon is Illuminated

Today's Extremes

State Highs State Lows

Community

WunderPhotos

Upload Photos

1,891,473 photos uploaded!

WunderBlog® & News

Nearby

Air Quality

  Air Quality AQ Index Pollutant
Not available.

Snow Depth

Station Depth Elevation

Earthquake Activity

City Distance Mag. Time & Date
Minimum magnitude displayed is 2.5.

Coastal Water Temperatures

Place Temperature

Stations

Nearby Weather Stations

Station Location Temp. Windchill Dew Point Humidity Wind Precip. Elev Updated Type
                   

Watches & Warnings

Winter Weather Advisory
Issued: 12:10 PM EST Feb. 8, 2016 – National Weather Service

... Winter Weather Advisory in effect from 6 PM this evening to
midnight EST Tuesday night...

The National Weather Service in Baltimore MD/Washington has
issued a Winter Weather Advisory for snow... which is in effect
from 6 PM this evening to midnight EST Tuesday night.

* Precipitation type... snow.

* Accumulations... snow accumulation of 2 to 5 inches.

* Timing... snow will develop late this afternoon and may become
heavy at times. Periods of snow will continue into Tuesday and
the advisory may need to be extended.

* Impacts... snow covered roads and travel disruptions.

* Winds... west 5 to 10 mph with gusts up to 20 mph.

* Temperatures... in the lower 30s.

Precautionary/preparedness actions...

A Winter Weather Advisory for snow means that periods of snow
will cause primarily travel difficulties. Be prepared for snow
covered roads and limited visibilities... and use caution while
driving.